Time;durP1;ratioP1;P1;durP2;ratioP2;P2;SDS_P1;SDS_P2;PMS_P1;PMS_P2;Temp;Humidity;BMP_temperature;BMP_pressure;BME280_temperature;BME280_humidity;BME280_pressure;Samples;Min_cycle;Max_cycle;Signal;HPM_P1;HPM_P2
2023/12/18 00:01:14;;;;;;;3.88;3.45;;;10.00;99.90;;;;;;5075943;28;20226;-79
2023/12/18 00:03:42;;;;;;;5.63;5.00;;;10.00;99.90;;;;;;5075712;28;20604;-79
2023/12/18 00:06:09;;;;;;;11.40;8.23;;;10.00;99.90;;;;;;5076346;28;20239;-78
2023/12/18 00:08:36;;;;;;;7.70;6.90;;;10.00;99.90;;;;;;5075750;28;20220;-78
2023/12/18 00:11:03;;;;;;;6.70;5.88;;;10.00;99.90;;;;;;5074345;28;20236;-78
2023/12/18 00:13:31;;;;;;;6.15;5.45;;;10.00;99.90;;;;;;5075585;28;20228;-77
2023/12/18 00:15:58;;;;;;;5.13;4.70;;;10.00;99.90;;;;;;5075584;28;20248;-79
2023/12/18 00:18:25;;;;;;;5.20;4.45;;;10.00;99.90;;;;;;5075927;28;20727;-77
2023/12/18 00:20:53;;;;;;;3.75;3.45;;;10.00;99.90;;;;;;5073756;28;20227;-78
2023/12/18 00:23:20;;;;;;;3.92;3.55;;;10.00;99.90;;;;;;5073768;28;20686;-78
2023/12/18 00:25:47;;;;;;;5.32;4.82;;;10.00;99.90;;;;;;5073341;28;20249;-79
2023/12/18 00:28:14;;;;;;;4.50;4.05;;;10.00;99.90;;;;;;5074081;28;20223;-78
2023/12/18 00:30:42;;;;;;;7.20;5.88;;;10.00;99.90;;;;;;5072346;28;20246;-79
2023/12/18 00:33:09;;;;;;;3.58;3.25;;;10.00;99.90;;;;;;5073461;28;20236;-78
2023/12/18 00:35:36;;;;;;;5.00;4.60;;;9.90;99.90;;;;;;5076053;28;20224;-78
2023/12/18 00:38:05;;;;;;;4.90;4.38;;;10.00;99.90;;;;;;5075136;28;20255;-78
2023/12/18 00:40:32;;;;;;;6.13;4.20;;;9.90;99.90;;;;;;5075585;28;20220;-78
2023/12/18 00:42:59;;;;;;;4.13;3.22;;;9.90;99.90;;;;;;5075163;28;20743;-78
2023/12/18 00:45:26;;;;;;;4.82;4.43;;;10.00;99.90;;;;;;5075502;28;20247;-78
2023/12/18 00:47:53;;;;;;;7.22;5.28;;;10.00;99.90;;;;;;5074853;28;20238;-78
2023/12/18 00:50:20;;;;;;;4.35;3.55;;;10.00;99.90;;;;;;5075505;28;20246;-78
2023/12/18 00:52:50;;;;;;;3.97;3.47;;;10.00;99.90;;;;;;5074630;28;20242;-78
2023/12/18 00:55:19;;;;;;;4.55;4.05;;;10.00;99.90;;;;;;5075219;28;20232;-78
2023/12/18 00:57:46;;;;;;;3.95;3.63;;;10.10;99.90;;;;;;5074750;28;20224;-77
2023/12/18 01:00:13;;;;;;;4.55;3.63;;;10.10;99.90;;;;;;5075204;28;20231;-77
2023/12/18 01:02:40;;;;;;;4.25;3.70;;;10.00;99.90;;;;;;5074965;28;20224;-78
2023/12/18 01:05:08;;;;;;;4.28;3.65;;;10.00;99.90;;;;;;5074364;28;20247;-77
2023/12/18 01:07:35;;;;;;;5.63;3.72;;;10.00;99.90;;;;;;5075055;28;20758;-77
2023/12/18 01:10:02;;;;;;;4.32;3.92;;;10.10;99.90;;;;;;5074539;28;20227;-78
2023/12/18 01:12:30;;;;;;;7.82;7.00;;;10.10;99.90;;;;;;5074577;28;20681;-78
2023/12/18 01:14:57;;;;;;;5.10;4.00;;;10.10;99.90;;;;;;5074237;28;20228;-78
2023/12/18 01:17:24;;;;;;;3.67;3.38;;;10.00;99.90;;;;;;5073996;28;20299;-77
2023/12/18 01:19:51;;;;;;;4.13;3.50;;;10.10;99.90;;;;;;5073888;28;20681;-76
2023/12/18 01:22:18;;;;;;;5.05;4.38;;;10.10;99.90;;;;;;5074620;28;20224;-76
2023/12/18 01:24:46;;;;;;;5.57;4.43;;;10.00;99.90;;;;;;5074644;28;20220;-77
2023/12/18 01:27:13;;;;;;;6.38;4.35;;;10.00;99.90;;;;;;5073896;28;20700;-76
2023/12/18 01:29:42;;;;;;;5.75;4.80;;;10.00;99.90;;;;;;5074896;28;20265;-77
2023/12/18 01:32:12;;;;;;;3.80;3.50;;;9.90;99.90;;;;;;5074003;28;20243;-77
2023/12/18 01:34:39;;;;;;;5.68;3.30;;;9.90;99.90;;;;;;5074562;28;20303;-77
2023/12/18 01:37:06;;;;;;;3.92;3.60;;;9.90;99.90;;;;;;5072136;28;20224;-78
2023/12/18 01:39:34;;;;;;;3.60;3.40;;;9.90;99.90;;;;;;5073766;28;20216;-78
2023/12/18 01:42:01;;;;;;;5.10;4.10;;;9.90;99.90;;;;;;5073299;28;20231;-78
2023/12/18 01:44:29;;;;;;;4.68;3.95;;;9.90;99.90;;;;;;5073578;28;20224;-78
2023/12/18 01:46:57;;;;;;;4.13;3.80;;;9.90;99.90;;;;;;5073802;28;20230;-78
2023/12/18 01:49:25;;;;;;;4.68;4.00;;;10.00;99.90;;;;;;5074647;28;20220;-78
2023/12/18 01:51:52;;;;;;;4.40;4.00;;;10.00;99.90;;;;;;5073355;28;20223;-77
2023/12/18 01:54:22;;;;;;;4.15;3.80;;;10.00;99.90;;;;;;5074378;28;20560;-77
2023/12/18 01:56:50;;;;;;;4.35;3.95;;;10.00;99.90;;;;;;5073901;28;20228;-77
2023/12/18 01:59:17;;;;;;;4.28;3.60;;;10.00;99.90;;;;;;5073999;28;20231;-76
2023/12/18 02:01:45;;;;;;;4.70;4.28;;;10.00;99.90;;;;;;5073975;28;20681;-77
2023/12/18 02:04:17;;;;;;;4.22;3.83;;;10.00;99.90;;;;;;5074883;28;20224;-77
2023/12/18 02:06:44;;;;;;;4.53;4.05;;;10.00;99.90;;;;;;5074346;28;20224;-77
2023/12/18 02:09:13;;;;;;;4.63;4.22;;;9.90;99.90;;;;;;5074110;28;20231;-77
2023/12/18 02:11:44;;;;;;;4.95;4.40;;;9.90;99.90;;;;;;5074301;28;20270;-78
2023/12/18 02:14:11;;;;;;;4.45;4.10;;;10.00;99.90;;;;;;5074686;28;20681;-77
2023/12/18 02:16:38;;;;;;;4.68;4.28;;;10.00;99.90;;;;;;5078081;28;20243;-77
2023/12/18 02:19:05;;;;;;;5.03;4.53;;;10.00;99.90;;;;;;5080677;28;20220;-78
2023/12/18 02:21:33;;;;;;;5.43;4.65;;;10.00;99.90;;;;;;5083537;28;20243;-77
2023/12/18 02:24:04;;;;;;;5.10;4.57;;;10.00;99.90;;;;;;5080318;28;20564;-77
2023/12/18 02:26:31;;;;;;;5.05;4.55;;;10.10;99.90;;;;;;5076831;28;20224;-77
2023/12/18 02:28:58;;;;;;;5.32;4.82;;;10.10;99.90;;;;;;5073985;28;20247;-77
2023/12/18 02:31:25;;;;;;;6.95;5.75;;;10.10;99.90;;;;;;5075004;28;20697;-77
2023/12/18 02:33:52;;;;;;;5.63;5.05;;;10.00;99.90;;;;;;5075553;28;20313;-77
2023/12/18 02:36:19;;;;;;;5.63;5.03;;;10.10;99.90;;;;;;5073846;28;20285;-76
2023/12/18 02:38:46;;;;;;;7.45;5.70;;;10.00;99.90;;;;;;5074214;28;20234;-77
2023/12/18 02:41:14;;;;;;;5.93;5.32;;;10.00;99.90;;;;;;5073373;28;20599;-77
2023/12/18 02:43:41;;;;;;;6.20;5.60;;;10.10;99.90;;;;;;5073800;28;20224;-77
2023/12/18 02:46:08;;;;;;;6.15;5.40;;;10.10;99.90;;;;;;5073419;28;20228;-77
2023/12/18 02:48:35;;;;;;;6.80;5.32;;;10.10;99.90;;;;;;5073533;28;20231;-77
2023/12/18 02:51:02;;;;;;;11.45;7.00;;;10.10;99.90;;;;;;5073041;28;20227;-78
2023/12/18 02:53:29;;;;;;;6.75;6.15;;;10.10;99.90;;;;;;5072977;28;20274;-78
2023/12/18 02:55:56;;;;;;;8.63;7.32;;;10.00;99.90;;;;;;5073227;28;20223;-77
2023/12/18 02:58:25;;;;;;;9.23;7.55;;;10.00;99.90;;;;;;5072904;28;20231;-76
2023/12/18 03:00:52;;;;;;;7.55;6.65;;;10.00;99.90;;;;;;5073320;28;20708;-77
2023/12/18 03:03:20;;;;;;;11.32;8.57;;;10.00;99.90;;;;;;5072736;28;20227;-77
2023/12/18 03:05:47;;;;;;;9.05;7.93;;;10.00;99.90;;;;;;5073207;28;20227;-77
2023/12/18 03:08:14;;;;;;;12.65;8.70;;;10.10;99.90;;;;;;5072662;28;20231;-77
2023/12/18 03:10:41;;;;;;;8.70;7.93;;;10.10;99.90;;;;;;5073119;28;20227;-77
2023/12/18 03:13:08;;;;;;;9.73;8.40;;;10.00;99.90;;;;;;5072488;28;20603;-77
2023/12/18 03:15:36;;;;;;;9.82;8.82;;;10.00;99.90;;;;;;5073284;28;20231;-78
2023/12/18 03:18:06;;;;;;;9.85;8.85;;;10.10;99.90;;;;;;5072523;28;20293;-78
2023/12/18 03:20:33;;;;;;;11.88;10.27;;;10.10;99.90;;;;;;5073280;28;20224;-78
2023/12/18 03:23:00;;;;;;;10.48;8.20;;;10.10;99.90;;;;;;5072498;28;20690;-78
2023/12/18 03:25:27;;;;;;;14.95;10.55;;;10.00;99.90;;;;;;5072775;28;20227;-78
2023/12/18 03:27:54;;;;;;;10.13;9.20;;;10.00;99.90;;;;;;5073147;28;20281;-77
2023/12/18 03:30:22;;;;;;;11.93;9.77;;;10.00;99.90;;;;;;5072664;28;20223;-78
2023/12/18 03:32:50;;;;;;;14.25;10.85;;;10.00;99.90;;;;;;5073013;28;20733;-78
2023/12/18 03:35:17;;;;;;;11.38;9.40;;;10.00;99.90;;;;;;5072345;28;20231;-78
2023/12/18 03:37:44;;;;;;;13.45;10.40;;;9.90;99.90;;;;;;5073099;28;20595;-78
2023/12/18 03:40:11;;;;;;;12.25;10.60;;;9.90;99.90;;;;;;5072374;28;20224;-78
2023/12/18 03:42:41;;;;;;;10.88;9.77;;;9.90;99.90;;;;;;5073126;28;20231;-78
2023/12/18 03:45:13;;;;;;;11.90;10.68;;;9.90;99.90;;;;;;5072395;28;20281;-78
2023/12/18 03:47:40;;;;;;;11.13;9.95;;;10.00;99.90;;;;;;5072760;28;20231;-78
2023/12/18 03:50:10;;;;;;;14.07;12.13;;;9.90;99.90;;;;;;5072630;28;20224;-78
2023/12/18 03:52:37;;;;;;;13.65;10.40;;;9.90;99.90;;;;;;5072419;28;20610;-78
2023/12/18 03:55:05;;;;;;;12.15;10.15;;;9.90;99.90;;;;;;5072242;28;20677;-78
2023/12/18 03:57:32;;;;;;;13.13;11.82;;;9.90;99.90;;;;;;5072646;28;20258;-78
2023/12/18 03:59:59;;;;;;;12.43;11.15;;;9.90;99.90;;;;;;5072506;28;20243;-77
2023/12/18 04:02:26;;;;;;;14.20;10.73;;;10.00;99.90;;;;;;5071783;28;20262;-77
2023/12/18 04:04:53;;;;;;;14.13;10.48;;;10.00;99.90;;;;;;5072752;28;20326;-78
2023/12/18 04:07:21;;;;;;;11.98;10.77;;;9.90;99.90;;;;;;5074893;28;20307;-78
2023/12/18 04:09:48;;;;;;;13.05;11.68;;;10.00;99.90;;;;;;5076026;28;20218;-78
2023/12/18 04:12:15;;;;;;;12.80;9.32;;;10.00;99.90;;;;;;5075695;28;20228;-78
2023/12/18 04:14:43;;;;;;;14.95;12.07;;;10.00;99.90;;;;;;5075875;28;20224;-78
2023/12/18 04:17:10;;;;;;;12.73;11.52;;;10.00;99.90;;;;;;5075377;28;20682;-78
2023/12/18 04:19:37;;;;;;;13.15;9.95;;;10.00;99.90;;;;;;5075532;28;20228;-77
2023/12/18 04:22:05;;;;;;;12.20;11.00;;;10.00;99.90;;;;;;5075675;28;20285;-78
2023/12/18 04:24:33;;;;;;;12.68;11.38;;;10.00;99.90;;;;;;5075488;28;20586;-78
2023/12/18 04:27:00;;;;;;;10.60;9.55;;;10.00;99.90;;;;;;5076023;28;20303;-78
2023/12/18 04:29:26;;;;;;;13.15;9.70;;;10.00;99.90;;;;;;5075471;28;20227;-78
2023/12/18 04:31:55;;;;;;;14.97;11.47;;;10.10;99.90;;;;;;5075792;28;20251;-78
2023/12/18 04:34:22;;;;;;;12.77;10.88;;;10.10;99.90;;;;;;5075227;28;20496;-78
2023/12/18 04:36:49;;;;;;;16.48;12.43;;;10.10;99.90;;;;;;5075725;28;20223;-78
2023/12/18 04:39:16;;;;;;;11.93;10.73;;;10.10;99.90;;;;;;5075287;28;20289;-78
2023/12/18 04:41:44;;;;;;;13.00;11.20;;;10.10;99.90;;;;;;5075459;28;20227;-78
2023/12/18 04:44:12;;;;;;;13.80;12.38;;;10.10;99.90;;;;;;5075036;28;20224;-77
2023/12/18 04:46:40;;;;;;;12.60;11.20;;;10.10;99.90;;;;;;5075686;28;20262;-78
2023/12/18 04:49:09;;;;;;;13.77;11.35;;;10.10;99.90;;;;;;5075504;28;20224;-78
2023/12/18 04:51:36;;;;;;;16.00;11.85;;;10.10;99.90;;;;;;5074685;28;20220;-78
2023/12/18 04:54:03;;;;;;;12.18;10.02;;;10.10;99.90;;;;;;5075019;28;20232;-78
2023/12/18 04:56:30;;;;;;;13.77;12.38;;;10.20;99.90;;;;;;5074785;28;20229;-78
2023/12/18 04:58:58;;;;;;;18.80;11.98;;;10.10;99.90;;;;;;5075340;28;20235;-78
2023/12/18 05:01:25;;;;;;;14.38;11.98;;;10.10;99.90;;;;;;5074089;28;20238;-77
2023/12/18 05:03:52;;;;;;;14.35;12.18;;;10.10;99.90;;;;;;5075046;28;20303;-77
2023/12/18 05:06:20;;;;;;;12.82;11.57;;;10.10;99.90;;;;;;5074509;28;20224;-78
2023/12/18 05:08:47;;;;;;;11.30;10.20;;;10.00;99.90;;;;;;5075043;28;20243;-78
2023/12/18 05:11:14;;;;;;;14.55;11.70;;;10.00;99.90;;;;;;5074277;28;20248;-78
2023/12/18 05:13:41;;;;;;;14.32;12.20;;;9.90;99.90;;;;;;5074424;28;20234;-77
2023/12/18 05:16:10;;;;;;;14.07;12.55;;;9.90;99.90;;;;;;5074253;28;20235;-77
2023/12/18 05:18:37;;;;;;;14.80;11.10;;;10.00;99.90;;;;;;5074216;28;20220;-78
2023/12/18 05:21:05;;;;;;;14.80;12.38;;;10.00;99.90;;;;;;5074951;28;20559;-77
2023/12/18 05:23:47;;;;;;;13.85;10.45;;;9.90;99.90;;;;;;5078628;28;20240;-77
2023/12/18 05:26:14;;;;;;;14.00;12.10;;;10.00;99.90;;;;;;5074428;28;20216;-78
2023/12/18 05:28:49;;;;;;;14.02;12.27;;;10.00;99.90;;;;;;5074620;28;20725;-78
2023/12/18 05:31:20;;;;;;;14.40;11.57;;;10.00;99.90;;;;;;5073701;28;20224;-77
2023/12/18 05:33:48;;;;;;;14.77;13.20;;;9.90;99.90;;;;;;5074472;28;20261;-78
2023/12/18 05:36:15;;;;;;;12.25;10.85;;;9.90;99.90;;;;;;5073658;28;20230;-77
2023/12/18 05:38:42;;;;;;;14.15;12.60;;;9.90;99.90;;;;;;5074537;28;20220;-77
2023/12/18 05:41:10;;;;;;;13.02;11.82;;;9.90;99.90;;;;;;5073809;28;20231;-77
2023/12/18 05:43:37;;;;;;;12.85;11.65;;;9.90;99.90;;;;;;5074206;28;20227;-77
2023/12/18 05:46:04;;;;;;;16.23;11.93;;;9.90;99.90;;;;;;5073479;28;20228;-78
2023/12/18 05:48:35;;;;;;;14.80;12.88;;;9.90;99.90;;;;;;5074402;28;20231;-78
2023/12/18 05:51:02;;;;;;;16.08;11.95;;;9.90;99.90;;;;;;5073705;28;20251;-78
2023/12/18 05:53:29;;;;;;;11.55;10.45;;;9.90;99.90;;;;;;5073861;28;20243;-77
2023/12/18 05:55:56;;;;;;;13.77;11.05;;;9.90;99.90;;;;;;5074296;28;20224;-78
2023/12/18 05:58:26;;;;;;;16.85;12.15;;;9.90;99.90;;;;;;5073588;28;20327;-77
2023/12/18 06:00:53;;;;;;;14.13;11.48;;;9.90;99.90;;;;;;5073999;28;20536;-78
2023/12/18 06:03:20;;;;;;;11.88;10.30;;;9.80;99.90;;;;;;5073638;28;20669;-77
2023/12/18 06:05:48;;;;;;;12.30;11.00;;;9.90;99.90;;;;;;5073856;28;20228;-78
2023/12/18 06:08:15;;;;;;;14.48;11.93;;;9.90;99.90;;;;;;5073694;28;20239;-77
2023/12/18 06:10:42;;;;;;;13.82;12.38;;;10.00;99.90;;;;;;5073493;28;20224;-78
2023/12/18 06:13:09;;;;;;;11.68;10.48;;;10.00;99.90;;;;;;5073084;28;20227;-77
2023/12/18 06:15:37;;;;;;;13.55;12.15;;;9.90;99.90;;;;;;5073976;28;20231;-77
2023/12/18 06:18:04;;;;;;;12.50;11.20;;;10.00;99.90;;;;;;5073310;28;20235;-77
2023/12/18 06:20:31;;;;;;;14.80;13.02;;;10.00;99.90;;;;;;5073242;28;20212;-77
2023/12/18 06:22:59;;;;;;;18.13;13.32;;;10.00;99.90;;;;;;5073812;28;20316;-78
2023/12/18 06:25:27;;;;;;;19.27;13.30;;;10.00;99.90;;;;;;5073081;28;20547;-77
2023/12/18 06:27:53;;;;;;;16.88;13.18;;;10.00;99.90;;;;;;5073234;28;20243;-77
2023/12/18 06:30:23;;;;;;;14.15;12.70;;;10.00;99.90;;;;;;5072618;28;20555;-77
2023/12/18 06:32:50;;;;;;;13.18;11.60;;;10.00;99.90;;;;;;5072686;28;20310;-77
2023/12/18 06:35:17;;;;;;;12.65;11.27;;;10.00;99.90;;;;;;5072996;28;20703;-77
2023/12/18 06:37:45;;;;;;;13.05;10.80;;;10.00;99.90;;;;;;5073209;28;20220;-77
2023/12/18 06:40:13;;;;;;;12.57;11.05;;;10.00;99.90;;;;;;5073100;28;20228;-77
2023/12/18 06:42:40;;;;;;;13.82;12.15;;;10.00;99.90;;;;;;5073496;28;20539;-77
2023/12/18 06:45:08;;;;;;;14.93;11.50;;;10.00;99.90;;;;;;5072707;28;20219;-77
2023/12/18 06:47:35;;;;;;;13.00;11.70;;;10.00;99.90;;;;;;5063945;28;20666;-77
2023/12/18 06:50:04;;;;;;;12.43;11.10;;;10.10;99.90;;;;;;5073156;28;20235;-77
2023/12/18 06:52:31;;;;;;;13.77;11.80;;;10.10;99.90;;;;;;5072683;28;20247;-77
2023/12/18 06:55:01;;;;;;;12.05;10.85;;;10.10;99.90;;;;;;5073484;28;20219;-77
2023/12/18 06:57:29;;;;;;;13.32;10.82;;;10.10;99.90;;;;;;5072868;28;20262;-77
2023/12/18 06:59:56;;;;;;;15.93;12.70;;;10.10;99.90;;;;;;5073226;28;20212;-78
2023/12/18 07:02:24;;;;;;;13.52;11.93;;;10.10;99.90;;;;;;5072725;28;20231;-78
2023/12/18 07:04:51;;;;;;;17.85;13.98;;;10.10;99.90;;;;;;5073300;28;20688;-78
2023/12/18 07:07:18;;;;;;;15.75;14.23;;;10.10;99.90;;;;;;5072943;28;20742;-77
2023/12/18 07:09:45;;;;;;;13.73;11.82;;;10.10;99.90;;;;;;5073130;28;20223;-77
2023/12/18 07:12:12;;;;;;;14.00;12.30;;;10.10;99.90;;;;;;5072658;28;20232;-77
2023/12/18 07:14:43;;;;;;;16.63;13.40;;;10.10;99.90;;;;;;5073151;28;20668;-77
2023/12/18 07:17:12;;;;;;;14.95;13.30;;;10.10;99.90;;;;;;5073015;28;20567;-77
2023/12/18 07:19:40;;;;;;;12.10;10.88;;;10.10;99.90;;;;;;5073034;28;20303;-77
2023/12/18 07:22:07;;;;;;;11.77;10.68;;;10.10;99.90;;;;;;5073119;28;20228;-77
2023/12/18 07:24:34;;;;;;;13.80;12.50;;;10.10;99.90;;;;;;5072616;28;20228;-77
2023/12/18 07:27:01;;;;;;;16.50;12.70;;;10.10;99.90;;;;;;5072935;28;20228;-77
2023/12/18 07:29:28;;;;;;;13.07;11.65;;;10.10;99.90;;;;;;5072589;28;20331;-77
2023/12/18 07:31:56;;;;;;;15.25;13.25;;;10.10;99.90;;;;;;5073040;28;20228;-77
2023/12/18 07:34:26;;;;;;;16.27;14.65;;;10.10;99.90;;;;;;5072421;28;20232;-77
2023/12/18 07:36:53;;;;;;;17.25;11.80;;;10.20;99.90;;;;;;5073998;28;20345;-77
2023/12/18 07:39:20;;;;;;;12.88;11.48;;;10.10;99.90;;;;;;5075818;28;20231;-78
2023/12/18 07:41:47;;;;;;;15.73;11.90;;;10.20;99.90;;;;;;5078200;28;20219;-78
2023/12/18 07:44:14;;;;;;;11.80;10.70;;;10.20;99.90;;;;;;5083652;28;20228;-78
2023/12/18 07:46:41;;;;;;;13.90;12.45;;;10.20;99.90;;;;;;5088218;28;20466;-78
2023/12/18 07:49:09;;;;;;;16.52;12.43;;;10.20;99.90;;;;;;5088133;28;20234;-78
2023/12/18 07:51:38;;;;;;;17.17;11.50;;;10.20;99.90;;;;;;5079527;28;20228;-76
2023/12/18 07:54:05;;;;;;;16.13;12.02;;;10.20;99.90;;;;;;5077102;28;20232;-77
2023/12/18 07:56:32;;;;;;;12.73;11.48;;;10.20;99.90;;;;;;5076399;28;20231;-77
2023/12/18 07:58:59;;;;;;;12.93;11.60;;;10.20;99.90;;;;;;5077063;28;20227;-78
2023/12/18 08:01:26;;;;;;;15.68;11.68;;;10.20;99.90;;;;;;5076183;28;20232;-78
2023/12/18 08:03:53;;;;;;;15.88;10.88;;;10.20;99.90;;;;;;5076688;28;20228;-78
2023/12/18 08:06:21;;;;;;;16.55;12.77;;;10.20;99.90;;;;;;5075661;28;20235;-78
2023/12/18 08:08:48;;;;;;;13.98;12.00;;;10.20;99.90;;;;;;5076283;28;20219;-78
2023/12/18 08:11:15;;;;;;;13.95;12.45;;;10.20;99.90;;;;;;5076011;28;20224;-78
2023/12/18 08:13:43;;;;;;;11.80;10.60;;;10.10;99.90;;;;;;5076219;28;20224;-78
2023/12/18 08:16:12;;;;;;;13.63;11.90;;;10.10;99.90;;;;;;5076314;28;20670;-78
2023/12/18 08:18:42;;;;;;;14.55;11.98;;;10.10;99.90;;;;;;5076172;28;20224;-78
2023/12/18 08:21:12;;;;;;;13.73;11.38;;;10.20;99.90;;;;;;5076042;28;20604;-78
2023/12/18 08:23:41;;;;;;;9.80;8.80;;;10.20;99.90;;;;;;5075247;28;20287;-78
2023/12/18 08:26:10;;;;;;;11.90;10.70;;;10.30;99.90;;;;;;5075969;28;20258;-78
2023/12/18 08:28:37;;;;;;;15.15;11.70;;;10.30;99.90;;;;;;5075419;28;20239;-77
2023/12/18 08:31:04;;;;;;;11.65;9.68;;;10.30;99.90;;;;;;5075701;28;20228;-78
2023/12/18 08:33:31;;;;;;;20.17;10.82;;;10.30;99.90;;;;;;5075481;28;20282;-78
2023/12/18 08:35:59;;;;;;;12.55;10.73;;;10.20;99.90;;;;;;5075868;28;20220;-77
2023/12/18 08:38:26;;;;;;;12.57;10.20;;;10.20;99.90;;;;;;5074993;28;20234;-78
2023/12/18 08:40:54;;;;;;;10.98;9.98;;;10.20;99.90;;;;;;5075440;28;20228;-78
2023/12/18 08:43:21;;;;;;;11.38;10.27;;;10.30;99.90;;;;;;5074913;28;20220;-78
2023/12/18 08:45:48;;;;;;;11.27;10.25;;;10.30;99.90;;;;;;5075308;28;20242;-77
2023/12/18 08:48:15;;;;;;;12.80;9.88;;;10.30;99.90;;;;;;5075655;28;20236;-77
2023/12/18 08:50:42;;;;;;;14.20;10.80;;;10.30;99.90;;;;;;5075002;28;20216;-77
2023/12/18 08:53:12;;;;;;;11.02;10.02;;;10.30;99.90;;;;;;5074725;28;20233;-77
2023/12/18 08:55:39;;;;;;;12.18;11.00;;;10.30;99.90;;;;;;5074835;28;20242;-77
2023/12/18 08:58:08;;;;;;;15.93;10.60;;;10.30;99.90;;;;;;5074470;28;20220;-78
2023/12/18 09:00:36;;;;;;;13.57;11.60;;;10.30;99.90;;;;;;5075121;28;20232;-78
2023/12/18 09:03:03;;;;;;;13.98;11.82;;;10.30;99.90;;;;;;5069374;28;20530;-77
2023/12/18 09:05:30;;;;;;;13.50;12.05;;;10.30;99.90;;;;;;5073524;28;20661;-77
2023/12/18 09:07:57;;;;;;;12.82;10.52;;;10.30;99.90;;;;;;5074689;28;20311;-77
2023/12/18 09:10:24;;;;;;;12.32;10.60;;;10.30;99.90;;;;;;5073341;28;20228;-77
2023/12/18 09:12:52;;;;;;;12.57;11.27;;;10.30;99.90;;;;;;5074574;28;20283;-77
2023/12/18 09:15:21;;;;;;;12.18;10.98;;;10.30;99.90;;;;;;5074632;28;20302;-77
2023/12/18 09:17:48;;;;;;;12.70;10.18;;;10.30;99.90;;;;;;5074229;28;20561;-78
2023/12/18 09:20:15;;;;;;;10.57;9.50;;;10.30;99.90;;;;;;5074543;28;20227;-77
2023/12/18 09:22:42;;;;;;;11.98;10.80;;;10.30;99.90;;;;;;5074113;28;20228;-77
2023/12/18 09:25:09;;;;;;;11.05;9.02;;;10.30;99.90;;;;;;5074119;28;20673;-77
2023/12/18 09:27:36;;;;;;;11.32;10.13;;;10.20;99.90;;;;;;5073759;28;20223;-78
2023/12/18 09:30:05;;;;;;;11.50;10.20;;;10.20;99.90;;;;;;5074417;28;20569;-78
2023/12/18 09:32:33;;;;;;;12.25;11.00;;;10.30;99.90;;;;;;5074088;28;20352;-78
2023/12/18 09:35:00;;;;;;;10.93;9.77;;;10.30;99.90;;;;;;5073957;28;20312;-78
2023/12/18 09:37:28;;;;;;;13.25;10.45;;;10.30;99.90;;;;;;5073340;28;20315;-78
2023/12/18 09:39:55;;;;;;;10.85;9.70;;;10.30;99.90;;;;;;5074200;28;20612;-77
2023/12/18 09:42:22;;;;;;;11.70;9.10;;;10.30;99.90;;;;;;5074595;28;20540;-77
2023/12/18 09:44:49;;;;;;;10.50;9.40;;;10.40;99.90;;;;;;5072585;28;20215;-78
2023/12/18 09:47:17;;;;;;;10.15;9.10;;;10.30;99.90;;;;;;5074040;28;20224;-78
2023/12/18 09:49:45;;;;;;;11.20;10.00;;;10.30;99.90;;;;;;5073056;28;20240;-78
2023/12/18 09:52:14;;;;;;;11.40;10.30;;;10.30;99.90;;;;;;5063087;28;20562;-78
2023/12/18 09:54:43;;;;;;;12.63;11.27;;;10.30;99.90;;;;;;5053200;28;20686;-78
2023/12/18 09:57:14;;;;;;;15.25;11.15;;;10.40;99.90;;;;;;5073047;28;20315;-78
2023/12/18 09:59:41;;;;;;;12.43;10.25;;;10.30;99.90;;;;;;5073798;28;20236;-78
2023/12/18 10:02:09;;;;;;;11.85;10.75;;;10.30;99.90;;;;;;5076480;28;20281;-77
2023/12/18 10:04:37;;;;;;;12.07;10.15;;;10.30;99.90;;;;;;5059551;28;20225;-78
2023/12/18 10:07:07;;;;;;;9.80;8.80;;;10.30;99.90;;;;;;5053339;28;20228;-77
2023/12/18 10:09:35;;;;;;;13.60;11.38;;;10.30;99.90;;;;;;5057244;28;20219;-78
2023/12/18 10:12:04;;;;;;;13.45;10.68;;;10.30;99.90;;;;;;5073701;28;20672;-77
2023/12/18 10:14:31;;;;;;;11.27;10.18;;;10.30;99.90;;;;;;5072624;28;20281;-78
2023/12/18 10:16:58;;;;;;;11.30;10.25;;;10.40;99.90;;;;;;5073655;28;20216;-78
2023/12/18 10:19:27;;;;;;;14.25;11.85;;;10.40;99.90;;;;;;5073716;28;20232;-78
2023/12/18 10:21:54;;;;;;;14.32;10.13;;;10.40;99.90;;;;;;5072554;28;20234;-77
2023/12/18 10:24:23;;;;;;;11.70;10.50;;;10.40;99.90;;;;;;5073355;28;20247;-77
2023/12/18 10:26:51;;;;;;;11.35;10.00;;;10.40;99.90;;;;;;5072505;28;20220;-77
2023/12/18 10:29:18;;;;;;;14.80;11.05;;;10.40;99.90;;;;;;5073265;28;20223;-78
2023/12/18 10:31:46;;;;;;;12.82;9.77;;;10.40;99.90;;;;;;5072624;28;20212;-77
2023/12/18 10:34:15;;;;;;;11.57;10.00;;;10.40;99.90;;;;;;5072853;28;20542;-78
2023/12/18 10:36:45;;;;;;;14.40;11.73;;;10.40;99.90;;;;;;5072983;28;20232;-77
2023/12/18 10:39:15;;;;;;;12.18;10.98;;;10.40;99.90;;;;;;5073134;28;20669;-77
2023/12/18 10:41:45;;;;;;;13.50;12.05;;;10.50;99.90;;;;;;5072829;28;20215;-77
2023/12/18 10:44:15;;;;;;;12.65;11.00;;;10.40;99.90;;;;;;5073238;28;20247;-77
2023/12/18 10:46:44;;;;;;;12.27;10.98;;;10.40;99.90;;;;;;5072845;28;20224;-77
2023/12/18 10:49:12;;;;;;;12.18;10.85;;;10.40;99.90;;;;;;5073315;28;20258;-77
2023/12/18 10:51:41;;;;;;;12.60;10.38;;;10.40;99.90;;;;;;5072410;28;20231;-78
2023/12/18 10:54:10;;;;;;;14.02;12.63;;;10.40;99.90;;;;;;5073236;28;20235;-78
2023/12/18 10:56:43;;;;;;;12.45;11.25;;;10.30;99.90;;;;;;5072062;28;20247;-78
2023/12/18 10:59:14;;;;;;;13.80;10.40;;;10.40;99.90;;;;;;5073076;28;20228;-77
2023/12/18 11:01:46;;;;;;;11.88;10.65;;;10.40;99.90;;;;;;5072510;28;20247;-79
2023/12/18 11:04:14;;;;;;;14.02;11.48;;;10.40;99.90;;;;;;5073044;28;20252;-78
2023/12/18 11:06:42;;;;;;;12.75;10.75;;;10.40;99.90;;;;;;5072114;28;20239;-77
2023/12/18 11:09:09;;;;;;;14.60;11.63;;;10.40;99.90;;;;;;5058045;28;20229;-77
2023/12/18 11:11:40;;;;;;;16.23;11.48;;;10.40;99.90;;;;;;5071392;28;20228;-79
2023/12/18 11:14:15;;;;;;;14.77;10.82;;;10.40;99.90;;;;;;5072802;28;20318;-77
2023/12/18 11:16:58;;;;;;;13.57;12.10;;;10.40;99.90;;;;;;5075490;28;20215;-78
2023/12/18 11:19:33;;;;;;;14.50;11.10;;;10.50;99.90;;;;;;5077038;28;20235;-78
2023/12/18 11:22:04;;;;;;;12.07;10.77;;;10.50;99.90;;;;;;5075917;28;20223;-78
2023/12/18 11:24:36;;;;;;;14.30;10.75;;;10.50;99.90;;;;;;5076505;28;20580;-78
2023/12/18 11:27:07;;;;;;;12.40;11.15;;;10.50;99.90;;;;;;5074713;28;20243;-78
2023/12/18 11:29:48;;;;;;;13.38;11.15;;;10.50;99.90;;;;;;5076978;28;20239;-77
2023/12/18 11:32:42;;;;;;;14.57;12.38;;;10.50;99.90;;;;;;5075682;28;20223;-78
2023/12/18 11:35:10;;;;;;;12.05;10.35;;;10.50;99.90;;;;;;5076280;28;20284;-78
2023/12/18 11:37:42;;;;;;;11.50;9.57;;;10.50;99.90;;;;;;5076422;28;20219;-78
2023/12/18 11:40:35;;;;;;;12.60;10.35;;;10.50;99.90;;;;;;5075359;28;20315;-79
2023/12/18 11:43:03;;;;;;;14.90;11.57;;;10.50;99.90;;;;;;5075536;28;20227;-78
2023/12/18 11:45:32;;;;;;;18.80;12.90;;;10.50;99.90;;;;;;5075030;28;20228;-78
2023/12/18 11:48:03;;;;;;;14.02;12.70;;;10.50;99.90;;;;;;5074715;28;20713;-79
2023/12/18 11:50:32;;;;;;;16.63;12.25;;;10.60;99.90;;;;;;5075852;28;20829;-78
2023/12/18 11:53:00;;;;;;;15.75;13.25;;;10.60;99.90;;;;;;5075371;28;20670;-79
2023/12/18 11:55:50;;;;;;;14.98;10.43;;;10.60;99.90;;;;;;5075029;28;20235;-78
2023/12/18 11:58:19;;;;;;;14.13;11.82;;;10.60;99.90;;;;;;5075597;28;20224;-79
2023/12/18 12:00:48;;;;;;;14.63;13.10;;;10.60;99.90;;;;;;5076402;28;20220;-78
2023/12/18 12:03:15;;;;;;;13.07;11.70;;;10.60;99.90;;;;;;5074798;28;20564;-78
2023/12/18 12:05:43;;;;;;;15.90;13.30;;;10.60;99.90;;;;;;5076170;28;20289;-78
2023/12/18 12:08:11;;;;;;;13.18;11.77;;;10.60;99.90;;;;;;5074702;28;20231;-78
2023/12/18 12:10:43;;;;;;;12.43;11.10;;;10.60;99.90;;;;;;5075295;28;20301;-78
2023/12/18 12:13:18;;;;;;;14.65;11.63;;;10.70;99.90;;;;;;5075549;28;20600;-78
2023/12/18 12:15:53;;;;;;;18.50;13.07;;;10.70;99.90;;;;;;5076122;28;20232;-78
2023/12/18 12:18:20;;;;;;;14.82;13.13;;;10.70;99.90;;;;;;5074645;28;20228;-78
2023/12/18 12:20:47;;;;;;;15.57;13.35;;;10.80;99.90;;;;;;5076070;28;20220;-78
2023/12/18 12:23:14;;;;;;;15.05;11.30;;;10.70;99.90;;;;;;5075403;28;20228;-78
2023/12/18 12:25:41;;;;;;;11.75;10.40;;;10.80;99.90;;;;;;5075428;28;20216;-78
2023/12/18 12:28:09;;;;;;;16.08;13.05;;;10.70;99.90;;;;;;5074595;28;20228;-78
2023/12/18 12:30:36;;;;;;;15.07;12.45;;;10.80;99.90;;;;;;5075305;28;20224;-78
2023/12/18 12:33:06;;;;;;;18.40;14.45;;;10.80;99.90;;;;;;5075711;28;20238;-78
2023/12/18 12:35:33;;;;;;;15.75;13.43;;;10.80;99.90;;;;;;5075611;28;20220;-78
2023/12/18 12:38:02;;;;;;;25.67;20.00;;;10.80;99.90;;;;;;5075908;28;20219;-78